sensor_id;sensor_type;location;lat;lon;timestamp;pressure;altitude;pressure_sealevel;temperature
60003;BMP280;46322;52.018;8.702;2023-03-15T00:01:21;99611.66;;;8.95
60003;BMP280;46322;52.018;8.702;2023-03-15T00:06:21;99611.78;;;9.07
60003;BMP280;46322;52.018;8.702;2023-03-15T00:11:21;99625.81;;;9.37
60003;BMP280;46322;52.018;8.702;2023-03-15T00:16:21;99622.03;;;7.58
60003;BMP280;46322;52.018;8.702;2023-03-15T00:21:22;99627.63;;;8.69
60003;BMP280;46322;52.018;8.702;2023-03-15T00:26:22;99646.63;;;8.62
60003;BMP280;46322;52.018;8.702;2023-03-15T00:31:23;99653.97;;;8.95
60003;BMP280;46322;52.018;8.702;2023-03-15T00:36:24;99643.53;;;8.00
60003;BMP280;46322;52.018;8.702;2023-03-15T00:41:24;99640.13;;;7.99
60003;BMP280;46322;52.018;8.702;2023-03-15T00:46:24;99638.78;;;8.83
60003;BMP280;46322;52.018;8.702;2023-03-15T00:51:24;99635.88;;;8.59
60003;BMP280;46322;52.018;8.702;2023-03-15T00:56:25;99640.84;;;8.69
60003;BMP280;46322;52.018;8.702;2023-03-15T01:01:26;99642.28;;;8.40
60003;BMP280;46322;52.018;8.702;2023-03-15T01:06:27;99647.69;;;8.70
60003;BMP280;46322;52.018;8.702;2023-03-15T01:11:28;99642.56;;;9.12
60003;BMP280;46322;52.018;8.702;2023-03-15T01:16:28;99649.00;;;9.02
60003;BMP280;46322;52.018;8.702;2023-03-15T01:21:28;99658.16;;;8.32
60003;BMP280;46322;52.018;8.702;2023-03-15T01:26:28;99663.19;;;8.80
60003;BMP280;46322;52.018;8.702;2023-03-15T01:31:28;99674.50;;;8.98
60003;BMP280;46322;52.018;8.702;2023-03-15T01:36:29;99677.56;;;9.09
60003;BMP280;46322;52.018;8.702;2023-03-15T01:41:29;99682.81;;;9.85
60003;BMP280;46322;52.018;8.702;2023-03-15T01:46:29;99691.94;;;9.67
60003;BMP280;46322;52.018;8.702;2023-03-15T01:51:38;99696.31;;;9.24
60003;BMP280;46322;52.018;8.702;2023-03-15T01:56:41;99702.34;;;9.92
60003;BMP280;46322;52.018;8.702;2023-03-15T02:01:42;99694.78;;;10.45
60003;BMP280;46322;52.018;8.702;2023-03-15T02:06:42;99697.41;;;8.59
60003;BMP280;46322;52.018;8.702;2023-03-15T02:11:43;99692.31;;;8.54
60003;BMP280;46322;52.018;8.702;2023-03-15T02:16:43;99700.06;;;9.23
60003;BMP280;46322;52.018;8.702;2023-03-15T02:21:46;99709.06;;;8.67
60003;BMP280;46322;52.018;8.702;2023-03-15T02:26:54;99712.09;;;9.50
60003;BMP280;46322;52.018;8.702;2023-03-15T02:31:56;99717.97;;;9.18
60003;BMP280;46322;52.018;8.702;2023-03-15T02:36:56;99722.38;;;9.14
60003;BMP280;46322;52.018;8.702;2023-03-15T02:41:57;99725.31;;;9.12
60003;BMP280;46322;52.018;8.702;2023-03-15T02:46:59;99722.25;;;9.69
60003;BMP280;46322;52.018;8.702;2023-03-15T02:52:00;99731.50;;;10.13
60003;BMP280;46322;52.018;8.702;2023-03-15T02:57:01;99738.06;;;9.86
60003;BMP280;46322;52.018;8.702;2023-03-15T03:02:01;99738.66;;;9.07
60003;BMP280;46322;52.018;8.702;2023-03-15T03:07:01;99749.00;;;8.48
60003;BMP280;46322;52.018;8.702;2023-03-15T03:12:02;99769.06;;;8.58
60003;BMP280;46322;52.018;8.702;2023-03-15T03:17:02;99779.94;;;9.55
60003;BMP280;46322;52.018;8.702;2023-03-15T03:22:05;99781.63;;;8.26
60003;BMP280;46322;52.018;8.702;2023-03-15T03:27:05;99792.19;;;8.95
60003;BMP280;46322;52.018;8.702;2023-03-15T03:32:05;99803.06;;;8.42
60003;BMP280;46322;52.018;8.702;2023-03-15T03:37:05;99807.56;;;9.11
60003;BMP280;46322;52.018;8.702;2023-03-15T03:42:05;99811.28;;;9.18
60003;BMP280;46322;52.018;8.702;2023-03-15T03:47:06;99825.66;;;8.91
60003;BMP280;46322;52.018;8.702;2023-03-15T03:52:06;99832.47;;;8.75
60003;BMP280;46322;52.018;8.702;2023-03-15T03:57:06;99847.50;;;9.44
60003;BMP280;46322;52.018;8.702;2023-03-15T04:02:07;99851.44;;;9.12
60003;BMP280;46322;52.018;8.702;2023-03-15T04:07:07;99856.78;;;9.67
60003;BMP280;46322;52.018;8.702;2023-03-15T04:12:07;99862.00;;;9.38
60003;BMP280;46322;52.018;8.702;2023-03-15T04:17:07;99866.09;;;9.64
60003;BMP280;46322;52.018;8.702;2023-03-15T04:22:07;99871.72;;;9.63
60003;BMP280;46322;52.018;8.702;2023-03-15T04:27:08;99878.59;;;9.55
60003;BMP280;46322;52.018;8.702;2023-03-15T04:32:09;99882.94;;;9.43
60003;BMP280;46322;52.018;8.702;2023-03-15T04:37:09;99892.75;;;9.68
60003;BMP280;46322;52.018;8.702;2023-03-15T04:42:09;99895.91;;;9.18
60003;BMP280;46322;52.018;8.702;2023-03-15T04:47:09;99884.75;;;9.77
60003;BMP280;46322;52.018;8.702;2023-03-15T04:52:09;99900.78;;;10.18
60003;BMP280;46322;52.018;8.702;2023-03-15T04:57:10;99920.47;;;10.00
60003;BMP280;46322;52.018;8.702;2023-03-15T05:02:10;99924.56;;;9.89
60003;BMP280;46322;52.018;8.702;2023-03-15T05:07:10;99920.19;;;10.02
60003;BMP280;46322;52.018;8.702;2023-03-15T05:12:10;99923.25;;;10.12
60003;BMP280;46322;52.018;8.702;2023-03-15T05:17:11;99939.31;;;10.07
60003;BMP280;46322;52.018;8.702;2023-03-15T05:22:11;99948.03;;;9.26
60003;BMP280;46322;52.018;8.702;2023-03-15T05:27:12;99941.94;;;10.75
60003;BMP280;46322;52.018;8.702;2023-03-15T05:32:13;99946.75;;;9.67
60003;BMP280;46322;52.018;8.702;2023-03-15T05:37:13;99952.88;;;10.65
60003;BMP280;46322;52.018;8.702;2023-03-15T05:42:13;99958.78;;;10.41
60003;BMP280;46322;52.018;8.702;2023-03-15T05:47:13;99980.06;;;10.23
60003;BMP280;46322;52.018;8.702;2023-03-15T05:52:14;99983.94;;;9.53
60003;BMP280;46322;52.018;8.702;2023-03-15T05:57:14;99993.28;;;9.77
60003;BMP280;46322;52.018;8.702;2023-03-15T06:02:14;100009.94;;;9.86
60003;BMP280;46322;52.018;8.702;2023-03-15T06:07:14;100012.38;;;10.00
60003;BMP280;46322;52.018;8.702;2023-03-15T06:12:15;100024.56;;;9.83
60003;BMP280;46322;52.018;8.702;2023-03-15T06:17:15;100034.06;;;9.76
60003;BMP280;46322;52.018;8.702;2023-03-15T06:22:15;100036.34;;;10.12
60003;BMP280;46322;52.018;8.702;2023-03-15T06:27:15;100057.56;;;9.77
60003;BMP280;46322;52.018;8.702;2023-03-15T06:32:15;100058.78;;;10.06
60003;BMP280;46322;52.018;8.702;2023-03-15T06:37:15;100064.47;;;11.10
60003;BMP280;46322;52.018;8.702;2023-03-15T06:42:16;100068.38;;;10.36
60003;BMP280;46322;52.018;8.702;2023-03-15T06:47:16;100086.34;;;9.53
60003;BMP280;46322;52.018;8.702;2023-03-15T06:52:16;100088.69;;;10.15
60003;BMP280;46322;52.018;8.702;2023-03-15T06:57:16;100094.66;;;9.69
60003;BMP280;46322;52.018;8.702;2023-03-15T07:02:17;100102.09;;;10.10
60003;BMP280;46322;52.018;8.702;2023-03-15T07:07:17;100107.22;;;10.06
60003;BMP280;46322;52.018;8.702;2023-03-15T07:12:18;100107.31;;;10.91
60003;BMP280;46322;52.018;8.702;2023-03-15T07:17:18;100118.47;;;12.09
60003;BMP280;46322;52.018;8.702;2023-03-15T07:22:18;100130.66;;;11.57
60003;BMP280;46322;52.018;8.702;2023-03-15T07:27:18;100156.28;;;10.38
60003;BMP280;46322;52.018;8.702;2023-03-15T07:32:18;100150.63;;;11.04
60003;BMP280;46322;52.018;8.702;2023-03-15T07:37:18;100149.25;;;11.57
60003;BMP280;46322;52.018;8.702;2023-03-15T07:42:18;100161.19;;;11.42
60003;BMP280;46322;52.018;8.702;2023-03-15T07:47:19;100151.63;;;11.91
60003;BMP280;46322;52.018;8.702;2023-03-15T07:52:19;100160.06;;;11.93
60003;BMP280;46322;52.018;8.702;2023-03-15T07:57:19;100181.88;;;12.65
60003;BMP280;46322;52.018;8.702;2023-03-15T08:02:19;100186.94;;;12.58
60003;BMP280;46322;52.018;8.702;2023-03-15T08:07:19;100200.31;;;10.86
60003;BMP280;46322;52.018;8.702;2023-03-15T08:12:19;100203.38;;;10.97
60003;BMP280;46322;52.018;8.702;2023-03-15T08:17:20;100205.72;;;11.36
60003;BMP280;46322;52.018;8.702;2023-03-15T08:22:20;100209.50;;;11.86
60003;BMP280;46322;52.018;8.702;2023-03-15T08:27:20;100217.53;;;12.64
60003;BMP280;46322;52.018;8.702;2023-03-15T08:32:20;100233.56;;;12.43
60003;BMP280;46322;52.018;8.702;2023-03-15T08:37:20;100241.06;;;12.86
60003;BMP280;46322;52.018;8.702;2023-03-15T08:42:20;100251.72;;;12.20
60003;BMP280;46322;52.018;8.702;2023-03-15T08:47:20;100269.03;;;11.85
60003;BMP280;46322;52.018;8.702;2023-03-15T08:52:21;100276.56;;;12.90
60003;BMP280;46322;52.018;8.702;2023-03-15T08:57:21;100276.34;;;12.50
60003;BMP280;46322;52.018;8.702;2023-03-15T09:02:21;100295.53;;;12.89
60003;BMP280;46322;52.018;8.702;2023-03-15T09:07:21;100287.47;;;12.64
60003;BMP280;46322;52.018;8.702;2023-03-15T09:12:22;100287.13;;;11.82
60003;BMP280;46322;52.018;8.702;2023-03-15T09:17:22;100296.16;;;12.86
60003;BMP280;46322;52.018;8.702;2023-03-15T09:22:22;100317.22;;;13.36
60003;BMP280;46322;52.018;8.702;2023-03-15T09:27:22;100325.84;;;13.45
60003;BMP280;46322;52.018;8.702;2023-03-15T09:32:22;100335.75;;;13.57
60003;BMP280;46322;52.018;8.702;2023-03-15T09:37:22;100341.84;;;13.45
60003;BMP280;46322;52.018;8.702;2023-03-15T09:53:09;100342.88;;;15.01
60003;BMP280;46322;52.018;8.702;2023-03-15T09:58:30;100341.16;;;13.97
60003;BMP280;46322;52.018;8.702;2023-03-15T10:03:32;100347.28;;;13.61
60003;BMP280;46322;52.018;8.702;2023-03-15T10:08:34;100348.94;;;13.29
60003;BMP280;46322;52.018;8.702;2023-03-15T10:24:06;100336.81;;;14.17
60003;BMP280;46322;52.018;8.702;2023-03-15T10:29:11;100355.25;;;13.97
60003;BMP280;46322;52.018;8.702;2023-03-15T10:34:13;100341.09;;;12.99
60003;BMP280;46322;52.018;8.702;2023-03-15T10:39:13;100342.16;;;14.73
60003;BMP280;46322;52.018;8.702;2023-03-15T10:44:15;100352.50;;;14.62
60003;BMP280;46322;52.018;8.702;2023-03-15T10:49:15;100344.56;;;14.50
60003;BMP280;46322;52.018;8.702;2023-03-15T10:54:16;100358.00;;;14.25
60003;BMP280;46322;52.018;8.702;2023-03-15T11:04:21;100373.34;;;13.92
60003;BMP280;46322;52.018;8.702;2023-03-15T11:09:22;100367.16;;;16.29
60003;BMP280;46322;52.018;8.702;2023-03-15T11:14:23;100375.28;;;15.31
60003;BMP280;46322;52.018;8.702;2023-03-15T11:19:27;100377.13;;;15.62
60003;BMP280;46322;52.018;8.702;2023-03-15T11:24:28;100377.81;;;16.10
60003;BMP280;46322;52.018;8.702;2023-03-15T11:34:44;100393.38;;;16.23
60003;BMP280;46322;52.018;8.702;2023-03-15T11:39:59;100409.50;;;14.97
60003;BMP280;46322;52.018;8.702;2023-03-15T11:45:11;100408.38;;;16.47
60003;BMP280;46322;52.018;8.702;2023-03-15T11:50:13;100404.81;;;15.22
60003;BMP280;46322;52.018;8.702;2023-03-15T11:55:34;100411.66;;;16.02
60003;BMP280;46322;52.018;8.702;2023-03-15T12:05:42;100407.25;;;16.87
60003;BMP280;46322;52.018;8.702;2023-03-15T12:10:43;100408.69;;;19.20
60003;BMP280;46322;52.018;8.702;2023-03-15T12:15:44;100411.91;;;18.92
60003;BMP280;46322;52.018;8.702;2023-03-15T12:20:48;100405.59;;;18.78
60003;BMP280;46322;52.018;8.702;2023-03-15T12:25:54;100406.03;;;17.30
60003;BMP280;46322;52.018;8.702;2023-03-15T12:30:55;100407.66;;;16.31
60003;BMP280;46322;52.018;8.702;2023-03-15T12:36:32;100415.88;;;17.22
60003;BMP280;46322;52.018;8.702;2023-03-15T12:41:33;100426.53;;;18.98
60003;BMP280;46322;52.018;8.702;2023-03-15T12:51:40;100406.13;;;17.86
60003;BMP280;46322;52.018;8.702;2023-03-15T12:56:44;100421.63;;;17.74
60003;BMP280;46322;52.018;8.702;2023-03-15T13:01:46;100419.44;;;17.83
60003;BMP280;46322;52.018;8.702;2023-03-15T13:12:11;100404.47;;;19.88
60003;BMP280;46322;52.018;8.702;2023-03-15T13:27:48;100433.56;;;21.08
60003;BMP280;46322;52.018;8.702;2023-03-15T13:33:00;100429.28;;;21.54
60003;BMP280;46322;52.018;8.702;2023-03-15T13:38:37;100441.28;;;20.92
60003;BMP280;46322;52.018;8.702;2023-03-15T13:43:28;100441.44;;;22.01
60003;BMP280;46322;52.018;8.702;2023-03-15T13:48:30;100445.66;;;25.31
60003;BMP280;46322;52.018;8.702;2023-03-15T13:53:31;100441.72;;;22.83
60003;BMP280;46322;52.018;8.702;2023-03-15T13:58:32;100444.50;;;18.91
60003;BMP280;46322;52.018;8.702;2023-03-15T14:03:32;100442.63;;;17.00
60003;BMP280;46322;52.018;8.702;2023-03-15T14:08:34;100448.88;;;16.46
60003;BMP280;46322;52.018;8.702;2023-03-15T14:13:45;100468.81;;;17.52
60003;BMP280;46322;52.018;8.702;2023-03-15T14:18:46;100454.53;;;16.25
60003;BMP280;46322;52.018;8.702;2023-03-15T14:23:47;100474.44;;;16.08
60003;BMP280;46322;52.018;8.702;2023-03-15T14:28:51;100490.41;;;15.42
60003;BMP280;46322;52.018;8.702;2023-03-15T14:33:54;100494.31;;;16.61
60003;BMP280;46322;52.018;8.702;2023-03-15T14:38:55;100496.34;;;18.95
60003;BMP280;46322;52.018;8.702;2023-03-15T14:43:56;100494.00;;;20.65
60003;BMP280;46322;52.018;8.702;2023-03-15T14:48:56;100491.16;;;22.80
60003;BMP280;46322;52.018;8.702;2023-03-15T14:53:56;100494.19;;;24.59
60003;BMP280;46322;52.018;8.702;2023-03-15T14:58:57;100498.84;;;24.58
60003;BMP280;46322;52.018;8.702;2023-03-15T15:03:58;100502.75;;;26.03
60003;BMP280;46322;52.018;8.702;2023-03-15T15:09:00;100509.03;;;27.13
60003;BMP280;46322;52.018;8.702;2023-03-15T15:14:01;100510.59;;;28.44
60003;BMP280;46322;52.018;8.702;2023-03-15T15:19:01;100512.59;;;27.10
60003;BMP280;46322;52.018;8.702;2023-03-15T15:24:02;100511.47;;;22.40
60003;BMP280;46322;52.018;8.702;2023-03-15T15:29:02;100505.81;;;27.98
60003;BMP280;46322;52.018;8.702;2023-03-15T15:34:03;100504.41;;;31.14
60003;BMP280;46322;52.018;8.702;2023-03-15T15:39:04;100501.47;;;28.25
60003;BMP280;46322;52.018;8.702;2023-03-15T15:44:17;100520.03;;;24.06
60003;BMP280;46322;52.018;8.702;2023-03-15T15:49:17;100515.91;;;25.25
60003;BMP280;46322;52.018;8.702;2023-03-15T15:54:20;100512.91;;;27.28
60003;BMP280;46322;52.018;8.702;2023-03-15T15:59:23;100520.22;;;29.48
60003;BMP280;46322;52.018;8.702;2023-03-15T16:04:24;100515.16;;;29.69
60003;BMP280;46322;52.018;8.702;2023-03-15T16:09:27;100516.25;;;22.77
60003;BMP280;46322;52.018;8.702;2023-03-15T16:14:27;100525.81;;;23.40
60003;BMP280;46322;52.018;8.702;2023-03-15T16:19:27;100524.13;;;19.10
60003;BMP280;46322;52.018;8.702;2023-03-15T16:24:29;100518.94;;;16.16
60003;BMP280;46322;52.018;8.702;2023-03-15T16:34:36;100521.59;;;14.97
60003;BMP280;46322;52.018;8.702;2023-03-15T16:39:36;100523.50;;;14.32
60003;BMP280;46322;52.018;8.702;2023-03-15T16:44:36;100525.91;;;15.42
60003;BMP280;46322;52.018;8.702;2023-03-15T16:49:36;100528.06;;;15.37
60003;BMP280;46322;52.018;8.702;2023-03-15T16:54:36;100531.97;;;14.22
60003;BMP280;46322;52.018;8.702;2023-03-15T16:59:37;100541.44;;;14.96
60003;BMP280;46322;52.018;8.702;2023-03-15T17:04:37;100540.03;;;14.62
60003;BMP280;46322;52.018;8.702;2023-03-15T17:09:38;100534.59;;;14.10
60003;BMP280;46322;52.018;8.702;2023-03-15T17:14:38;100541.28;;;13.38
60003;BMP280;46322;52.018;8.702;2023-03-15T17:19:38;100547.63;;;13.99
60003;BMP280;46322;52.018;8.702;2023-03-15T17:24:38;100556.75;;;14.47
60003;BMP280;46322;52.018;8.702;2023-03-15T17:29:38;100561.97;;;14.44
60003;BMP280;46322;52.018;8.702;2023-03-15T17:34:39;100554.50;;;13.34
60003;BMP280;46322;52.018;8.702;2023-03-15T17:39:39;100560.13;;;11.60
60003;BMP280;46322;52.018;8.702;2023-03-15T17:44:40;100570.06;;;11.80
60003;BMP280;46322;52.018;8.702;2023-03-15T17:49:40;100564.13;;;11.23
60003;BMP280;46322;52.018;8.702;2023-03-15T17:54:40;100575.53;;;11.14
60003;BMP280;46322;52.018;8.702;2023-03-15T17:59:40;100572.72;;;10.63
60003;BMP280;46322;52.018;8.702;2023-03-15T18:04:40;100570.63;;;10.91
60003;BMP280;46322;52.018;8.702;2023-03-15T18:09:41;100576.13;;;10.63
60003;BMP280;46322;52.018;8.702;2023-03-15T18:14:41;100575.19;;;10.59
60003;BMP280;46322;52.018;8.702;2023-03-15T18:19:41;100575.88;;;10.11
60003;BMP280;46322;52.018;8.702;2023-03-15T18:24:41;100575.53;;;10.35
60003;BMP280;46322;52.018;8.702;2023-03-15T18:29:42;100590.28;;;10.19
60003;BMP280;46322;52.018;8.702;2023-03-15T18:34:42;100588.44;;;10.06
60003;BMP280;46322;52.018;8.702;2023-03-15T18:39:42;100590.00;;;10.29
60003;BMP280;46322;52.018;8.702;2023-03-15T18:44:42;100585.94;;;10.01
60003;BMP280;46322;52.018;8.702;2023-03-15T18:49:43;100598.03;;;10.15
60003;BMP280;46322;52.018;8.702;2023-03-15T18:54:43;100583.53;;;9.90
60003;BMP280;46322;52.018;8.702;2023-03-15T18:59:43;100589.00;;;9.94
60003;BMP280;46322;52.018;8.702;2023-03-15T19:04:43;100590.44;;;10.00
60003;BMP280;46322;52.018;8.702;2023-03-15T19:09:43;100606.03;;;9.65
60003;BMP280;46322;52.018;8.702;2023-03-15T19:14:44;100604.19;;;10.02
60003;BMP280;46322;52.018;8.702;2023-03-15T19:19:44;100610.03;;;9.41
60003;BMP280;46322;52.018;8.702;2023-03-15T19:24:44;100612.91;;;10.25
60003;BMP280;46322;52.018;8.702;2023-03-15T19:29:44;100618.22;;;9.67
60003;BMP280;46322;52.018;8.702;2023-03-15T19:34:45;100632.66;;;9.83
60003;BMP280;46322;52.018;8.702;2023-03-15T19:39:46;100623.44;;;10.16
60003;BMP280;46322;52.018;8.702;2023-03-15T19:44:46;100618.66;;;9.82
60003;BMP280;46322;52.018;8.702;2023-03-15T19:49:46;100625.31;;;9.16
60003;BMP280;46322;52.018;8.702;2023-03-15T19:54:46;100623.19;;;9.32
60003;BMP280;46322;52.018;8.702;2023-03-15T19:59:47;100633.00;;;9.54
60003;BMP280;46322;52.018;8.702;2023-03-15T20:04:47;100639.13;;;9.27
60003;BMP280;46322;52.018;8.702;2023-03-15T20:09:47;100625.81;;;9.32
60003;BMP280;46322;52.018;8.702;2023-03-15T20:14:47;100635.09;;;9.43
60003;BMP280;46322;52.018;8.702;2023-03-15T20:19:48;100648.84;;;9.31
60003;BMP280;46322;52.018;8.702;2023-03-15T20:24:48;100657.16;;;9.11
60003;BMP280;46322;52.018;8.702;2023-03-15T20:29:48;100663.75;;;9.14
60003;BMP280;46322;52.018;8.702;2023-03-15T20:34:48;100658.81;;;9.48
60003;BMP280;46322;52.018;8.702;2023-03-15T20:39:49;100662.56;;;10.95
60003;BMP280;46322;52.018;8.702;2023-03-15T20:44:49;100670.81;;;12.37
60003;BMP280;46322;52.018;8.702;2023-03-15T20:49:49;100674.06;;;11.30
60003;BMP280;46322;52.018;8.702;2023-03-15T20:54:50;100678.03;;;11.67
60003;BMP280;46322;52.018;8.702;2023-03-15T20:59:50;100673.19;;;11.61
60003;BMP280;46322;52.018;8.702;2023-03-15T21:04:50;100666.06;;;11.22
60003;BMP280;46322;52.018;8.702;2023-03-15T21:09:50;100663.63;;;10.54
60003;BMP280;46322;52.018;8.702;2023-03-15T21:14:51;100656.75;;;10.84
60003;BMP280;46322;52.018;8.702;2023-03-15T21:19:51;100654.91;;;10.40
60003;BMP280;46322;52.018;8.702;2023-03-15T21:24:52;100663.16;;;9.94
60003;BMP280;46322;52.018;8.702;2023-03-15T21:29:52;100661.78;;;8.40
60003;BMP280;46322;52.018;8.702;2023-03-15T21:34:53;100662.63;;;9.15
60003;BMP280;46322;52.018;8.702;2023-03-15T21:39:53;100661.66;;;10.24
60003;BMP280;46322;52.018;8.702;2023-03-15T21:44:53;100661.16;;;10.22
60003;BMP280;46322;52.018;8.702;2023-03-15T21:49:54;100661.28;;;10.17
60003;BMP280;46322;52.018;8.702;2023-03-15T21:54:54;100665.19;;;9.97
60003;BMP280;46322;52.018;8.702;2023-03-15T21:59:54;100665.09;;;10.02
60003;BMP280;46322;52.018;8.702;2023-03-15T22:04:54;100675.75;;;9.33
60003;BMP280;46322;52.018;8.702;2023-03-15T22:09:54;100680.94;;;9.25
60003;BMP280;46322;52.018;8.702;2023-03-15T22:14:55;100679.97;;;9.48
60003;BMP280;46322;52.018;8.702;2023-03-15T22:19:55;100671.84;;;9.72
60003;BMP280;46322;52.018;8.702;2023-03-15T22:24:55;100672.00;;;9.07
60003;BMP280;46322;52.018;8.702;2023-03-15T22:29:55;100675.38;;;9.40
60003;BMP280;46322;52.018;8.702;2023-03-15T22:34:56;100678.31;;;9.52
60003;BMP280;46322;52.018;8.702;2023-03-15T22:39:56;100672.50;;;9.64
60003;BMP280;46322;52.018;8.702;2023-03-15T22:44:57;100676.84;;;9.74
60003;BMP280;46322;52.018;8.702;2023-03-15T22:49:57;100679.69;;;9.36
60003;BMP280;46322;52.018;8.702;2023-03-15T22:54:57;100668.59;;;9.06
60003;BMP280;46322;52.018;8.702;2023-03-15T22:59:57;100673.56;;;8.29
60003;BMP280;46322;52.018;8.702;2023-03-15T23:04:58;100672.56;;;7.16
60003;BMP280;46322;52.018;8.702;2023-03-15T23:09:58;100669.06;;;7.92
60003;BMP280;46322;52.018;8.702;2023-03-15T23:14:58;100666.91;;;7.51
60003;BMP280;46322;52.018;8.702;2023-03-15T23:19:58;100665.75;;;7.39
60003;BMP280;46322;52.018;8.702;2023-03-15T23:24:59;100669.00;;;9.69
60003;BMP280;46322;52.018;8.702;2023-03-15T23:29:59;100680.44;;;6.58
60003;BMP280;46322;52.018;8.702;2023-03-15T23:34:59;100686.66;;;7.01
60003;BMP280;46322;52.018;8.702;2023-03-15T23:40:00;100681.91;;;7.80
60003;BMP280;46322;52.018;8.702;2023-03-15T23:45:00;100687.72;;;7.53
60003;BMP280;46322;52.018;8.702;2023-03-15T23:50:01;100690.19;;;8.30
60003;BMP280;46322;52.018;8.702;2023-03-15T23:55:01;100689.69;;;7.66
